sensor_id;sensor_type;location;lat;lon;timestamp;P1;durP1;ratioP1;P2;durP2;ratioP2
5722;SDS011;2886;49.722;8.612;2022-12-07T00:01:29;11.13;;;4.80;;
5722;SDS011;2886;49.722;8.612;2022-12-07T00:03:57;8.17;;;5.10;;
5722;SDS011;2886;49.722;8.612;2022-12-07T00:06:34;9.43;;;5.00;;
5722;SDS011;2886;49.722;8.612;2022-12-07T00:09:05;7.17;;;5.03;;
5722;SDS011;2886;49.722;8.612;2022-12-07T00:11:32;11.67;;;5.80;;
5722;SDS011;2886;49.722;8.612;2022-12-07T00:13:59;11.20;;;6.13;;
5722;SDS011;2886;49.722;8.612;2022-12-07T00:16:28;10.00;;;5.10;;
5722;SDS011;2886;49.722;8.612;2022-12-07T00:18:55;8.07;;;4.60;;
5722;SDS011;2886;49.722;8.612;2022-12-07T00:21:22;6.70;;;4.57;;
5722;SDS011;2886;49.722;8.612;2022-12-07T00:23:52;8.27;;;5.30;;
5722;SDS011;2886;49.722;8.612;2022-12-07T00:26:20;8.73;;;5.10;;
5722;SDS011;2886;49.722;8.612;2022-12-07T00:28:48;11.33;;;5.70;;
5722;SDS011;2886;49.722;8.612;2022-12-07T00:31:16;8.10;;;4.87;;
5722;SDS011;2886;49.722;8.612;2022-12-07T00:33:43;8.53;;;5.33;;
5722;SDS011;2886;49.722;8.612;2022-12-07T00:36:10;8.53;;;4.80;;
5722;SDS011;2886;49.722;8.612;2022-12-07T00:38:38;11.63;;;5.93;;
5722;SDS011;2886;49.722;8.612;2022-12-07T00:41:06;14.33;;;5.30;;
5722;SDS011;2886;49.722;8.612;2022-12-07T00:43:34;10.23;;;5.40;;
5722;SDS011;2886;49.722;8.612;2022-12-07T00:45:59;12.10;;;5.90;;
5722;SDS011;2886;49.722;8.612;2022-12-07T00:48:25;8.23;;;4.90;;
5722;SDS011;2886;49.722;8.612;2022-12-07T00:50:51;8.37;;;4.73;;
5722;SDS011;2886;49.722;8.612;2022-12-07T00:53:17;8.27;;;4.40;;
5722;SDS011;2886;49.722;8.612;2022-12-07T00:55:43;8.50;;;4.50;;
5722;SDS011;2886;49.722;8.612;2022-12-07T00:58:10;5.60;;;3.80;;
5722;SDS011;2886;49.722;8.612;2022-12-07T01:00:36;9.77;;;5.87;;
5722;SDS011;2886;49.722;8.612;2022-12-07T01:03:04;10.90;;;5.67;;
5722;SDS011;2886;49.722;8.612;2022-12-07T01:05:30;10.73;;;5.50;;
5722;SDS011;2886;49.722;8.612;2022-12-07T01:07:55;10.03;;;5.40;;
5722;SDS011;2886;49.722;8.612;2022-12-07T01:10:21;12.23;;;5.70;;
5722;SDS011;2886;49.722;8.612;2022-12-07T01:12:47;10.37;;;5.70;;
5722;SDS011;2886;49.722;8.612;2022-12-07T01:15:12;10.20;;;5.57;;
5722;SDS011;2886;49.722;8.612;2022-12-07T01:17:38;11.90;;;5.40;;
5722;SDS011;2886;49.722;8.612;2022-12-07T01:20:04;8.70;;;4.70;;
5722;SDS011;2886;49.722;8.612;2022-12-07T01:22:31;9.37;;;5.47;;
5722;SDS011;2886;49.722;8.612;2022-12-07T01:24:57;10.67;;;5.70;;
5722;SDS011;2886;49.722;8.612;2022-12-07T01:27:22;11.73;;;5.90;;
5722;SDS011;2886;49.722;8.612;2022-12-07T01:29:48;6.53;;;4.27;;
5722;SDS011;2886;49.722;8.612;2022-12-07T01:32:13;8.17;;;5.20;;
5722;SDS011;2886;49.722;8.612;2022-12-07T01:34:39;9.90;;;5.10;;
5722;SDS011;2886;49.722;8.612;2022-12-07T01:37:04;8.63;;;5.10;;
5722;SDS011;2886;49.722;8.612;2022-12-07T01:39:30;8.83;;;5.17;;
5722;SDS011;2886;49.722;8.612;2022-12-07T01:41:56;6.93;;;4.77;;
5722;SDS011;2886;49.722;8.612;2022-12-07T01:44:28;10.20;;;5.80;;
5722;SDS011;2886;49.722;8.612;2022-12-07T01:46:56;9.73;;;5.20;;
5722;SDS011;2886;49.722;8.612;2022-12-07T01:49:32;7.57;;;4.80;;
5722;SDS011;2886;49.722;8.612;2022-12-07T01:52:13;10.43;;;5.43;;
5722;SDS011;2886;49.722;8.612;2022-12-07T01:54:41;11.03;;;5.40;;
5722;SDS011;2886;49.722;8.612;2022-12-07T01:57:08;9.97;;;5.50;;
5722;SDS011;2886;49.722;8.612;2022-12-07T01:59:34;12.50;;;4.80;;
5722;SDS011;2886;49.722;8.612;2022-12-07T02:02:01;8.60;;;5.67;;
5722;SDS011;2886;49.722;8.612;2022-12-07T02:04:29;10.40;;;5.67;;
5722;SDS011;2886;49.722;8.612;2022-12-07T02:06:55;10.13;;;5.60;;
5722;SDS011;2886;49.722;8.612;2022-12-07T02:09:22;7.90;;;5.10;;
5722;SDS011;2886;49.722;8.612;2022-12-07T02:11:49;9.10;;;5.53;;
5722;SDS011;2886;49.722;8.612;2022-12-07T02:14:15;13.33;;;5.90;;
5722;SDS011;2886;49.722;8.612;2022-12-07T02:16:44;10.50;;;5.30;;
5722;SDS011;2886;49.722;8.612;2022-12-07T02:24:54;8.93;;;5.40;;
5722;SDS011;2886;49.722;8.612;2022-12-07T02:27:32;8.93;;;5.03;;
5722;SDS011;2886;49.722;8.612;2022-12-07T02:30:12;7.13;;;4.53;;
5722;SDS011;2886;49.722;8.612;2022-12-07T02:32:41;9.30;;;5.33;;
5722;SDS011;2886;49.722;8.612;2022-12-07T02:41:07;10.77;;;5.43;;
5722;SDS011;2886;49.722;8.612;2022-12-07T02:43:45;10.07;;;5.10;;
5722;SDS011;2886;49.722;8.612;2022-12-07T02:46:17;6.93;;;4.43;;
5722;SDS011;2886;49.722;8.612;2022-12-07T02:49:04;11.43;;;5.73;;
5722;SDS011;2886;49.722;8.612;2022-12-07T02:51:31;9.63;;;5.60;;
5722;SDS011;2886;49.722;8.612;2022-12-07T02:53:58;7.83;;;4.70;;
5722;SDS011;2886;49.722;8.612;2022-12-07T02:59:13;12.07;;;6.10;;
5722;SDS011;2886;49.722;8.612;2022-12-07T03:13:19;10.57;;;6.17;;
5722;SDS011;2886;49.722;8.612;2022-12-07T03:18:47;9.33;;;5.90;;
5722;SDS011;2886;49.722;8.612;2022-12-07T03:21:25;10.33;;;5.60;;
5722;SDS011;2886;49.722;8.612;2022-12-07T03:23:56;12.97;;;4.83;;
5722;SDS011;2886;49.722;8.612;2022-12-07T03:26:24;11.10;;;6.00;;
5722;SDS011;2886;49.722;8.612;2022-12-07T03:28:59;13.27;;;6.00;;
5722;SDS011;2886;49.722;8.612;2022-12-07T03:31:35;7.37;;;5.23;;
5722;SDS011;2886;49.722;8.612;2022-12-07T03:37:26;12.23;;;5.97;;
5722;SDS011;2886;49.722;8.612;2022-12-07T03:42:35;9.40;;;5.93;;
5722;SDS011;2886;49.722;8.612;2022-12-07T03:45:02;11.73;;;6.50;;
5722;SDS011;2886;49.722;8.612;2022-12-07T03:47:42;10.00;;;5.87;;
5722;SDS011;2886;49.722;8.612;2022-12-07T03:50:34;9.63;;;5.20;;
5722;SDS011;2886;49.722;8.612;2022-12-07T03:53:13;10.00;;;5.17;;
5722;SDS011;2886;49.722;8.612;2022-12-07T03:55:44;11.00;;;5.23;;
5722;SDS011;2886;49.722;8.612;2022-12-07T03:58:14;12.33;;;5.17;;
5722;SDS011;2886;49.722;8.612;2022-12-07T04:00:43;11.90;;;6.13;;
5722;SDS011;2886;49.722;8.612;2022-12-07T04:03:09;11.67;;;5.70;;
5722;SDS011;2886;49.722;8.612;2022-12-07T04:05:35;10.33;;;5.83;;
5722;SDS011;2886;49.722;8.612;2022-12-07T04:08:02;10.63;;;5.53;;
5722;SDS011;2886;49.722;8.612;2022-12-07T04:10:28;9.40;;;5.00;;
5722;SDS011;2886;49.722;8.612;2022-12-07T04:12:53;10.63;;;5.30;;
5722;SDS011;2886;49.722;8.612;2022-12-07T04:15:19;9.07;;;4.93;;
5722;SDS011;2886;49.722;8.612;2022-12-07T04:17:45;11.10;;;5.33;;
5722;SDS011;2886;49.722;8.612;2022-12-07T04:20:11;9.60;;;5.50;;
5722;SDS011;2886;49.722;8.612;2022-12-07T04:22:37;12.17;;;6.27;;
5722;SDS011;2886;49.722;8.612;2022-12-07T04:25:03;11.13;;;5.77;;
5722;SDS011;2886;49.722;8.612;2022-12-07T04:27:29;11.53;;;5.43;;
5722;SDS011;2886;49.722;8.612;2022-12-07T04:29:55;17.33;;;6.00;;
5722;SDS011;2886;49.722;8.612;2022-12-07T04:32:21;15.30;;;5.50;;
5722;SDS011;2886;49.722;8.612;2022-12-07T04:34:47;8.20;;;5.00;;
5722;SDS011;2886;49.722;8.612;2022-12-07T04:37:13;10.40;;;5.50;;
5722;SDS011;2886;49.722;8.612;2022-12-07T04:39:39;9.10;;;5.23;;
5722;SDS011;2886;49.722;8.612;2022-12-07T04:42:04;11.30;;;6.27;;
5722;SDS011;2886;49.722;8.612;2022-12-07T04:44:30;5.27;;;4.20;;
5722;SDS011;2886;49.722;8.612;2022-12-07T04:46:56;7.50;;;4.30;;
5722;SDS011;2886;49.722;8.612;2022-12-07T04:49:22;8.90;;;4.53;;
5722;SDS011;2886;49.722;8.612;2022-12-07T04:51:48;7.20;;;4.60;;
5722;SDS011;2886;49.722;8.612;2022-12-07T04:54:15;7.43;;;4.67;;
5722;SDS011;2886;49.722;8.612;2022-12-07T04:56:41;7.40;;;4.90;;
5722;SDS011;2886;49.722;8.612;2022-12-07T04:59:26;7.57;;;4.03;;
5722;SDS011;2886;49.722;8.612;2022-12-07T05:01:52;8.93;;;4.60;;
5722;SDS011;2886;49.722;8.612;2022-12-07T05:04:17;11.80;;;5.43;;
5722;SDS011;2886;49.722;8.612;2022-12-07T05:06:43;7.43;;;4.27;;
5722;SDS011;2886;49.722;8.612;2022-12-07T05:09:09;7.53;;;4.33;;
5722;SDS011;2886;49.722;8.612;2022-12-07T05:11:35;13.43;;;5.27;;
5722;SDS011;2886;49.722;8.612;2022-12-07T05:14:07;8.30;;;4.70;;
5722;SDS011;2886;49.722;8.612;2022-12-07T05:16:33;8.20;;;5.57;;
5722;SDS011;2886;49.722;8.612;2022-12-07T05:18:59;9.70;;;5.47;;
5722;SDS011;2886;49.722;8.612;2022-12-07T05:21:25;9.50;;;5.47;;
5722;SDS011;2886;49.722;8.612;2022-12-07T05:23:50;8.03;;;4.87;;
5722;SDS011;2886;49.722;8.612;2022-12-07T05:26:16;10.00;;;5.27;;
5722;SDS011;2886;49.722;8.612;2022-12-07T05:28:42;9.60;;;4.80;;
5722;SDS011;2886;49.722;8.612;2022-12-07T05:31:08;8.60;;;4.90;;
5722;SDS011;2886;49.722;8.612;2022-12-07T05:33:33;11.10;;;5.63;;
5722;SDS011;2886;49.722;8.612;2022-12-07T05:35:59;9.60;;;4.87;;
5722;SDS011;2886;49.722;8.612;2022-12-07T05:38:30;6.97;;;4.93;;
5722;SDS011;2886;49.722;8.612;2022-12-07T05:41:02;10.73;;;5.50;;
5722;SDS011;2886;49.722;8.612;2022-12-07T05:43:29;10.93;;;5.47;;
5722;SDS011;2886;49.722;8.612;2022-12-07T05:45:56;9.87;;;5.37;;
5722;SDS011;2886;49.722;8.612;2022-12-07T05:48:22;7.87;;;4.97;;
5722;SDS011;2886;49.722;8.612;2022-12-07T05:50:48;7.53;;;4.70;;
5722;SDS011;2886;49.722;8.612;2022-12-07T05:53:14;9.07;;;5.50;;
5722;SDS011;2886;49.722;8.612;2022-12-07T05:55:40;6.63;;;4.63;;
5722;SDS011;2886;49.722;8.612;2022-12-07T05:58:05;10.53;;;5.50;;
5722;SDS011;2886;49.722;8.612;2022-12-07T06:00:50;9.90;;;4.77;;
5722;SDS011;2886;49.722;8.612;2022-12-07T06:03:15;9.87;;;5.00;;
5722;SDS011;2886;49.722;8.612;2022-12-07T06:05:41;8.43;;;4.70;;
5722;SDS011;2886;49.722;8.612;2022-12-07T06:08:07;7.47;;;4.97;;
5722;SDS011;2886;49.722;8.612;2022-12-07T06:10:32;8.10;;;4.97;;
5722;SDS011;2886;49.722;8.612;2022-12-07T06:12:58;8.93;;;5.00;;
5722;SDS011;2886;49.722;8.612;2022-12-07T06:15:24;9.33;;;4.73;;
5722;SDS011;2886;49.722;8.612;2022-12-07T06:17:49;9.43;;;5.00;;
5722;SDS011;2886;49.722;8.612;2022-12-07T06:20:15;11.70;;;5.83;;
5722;SDS011;2886;49.722;8.612;2022-12-07T06:22:41;9.37;;;5.57;;
5722;SDS011;2886;49.722;8.612;2022-12-07T06:25:06;7.90;;;5.20;;
5722;SDS011;2886;49.722;8.612;2022-12-07T06:27:32;6.53;;;4.23;;
5722;SDS011;2886;49.722;8.612;2022-12-07T06:29:58;9.27;;;5.37;;
5722;SDS011;2886;49.722;8.612;2022-12-07T06:32:24;8.73;;;5.03;;
5722;SDS011;2886;49.722;8.612;2022-12-07T06:34:50;11.37;;;5.80;;
5722;SDS011;2886;49.722;8.612;2022-12-07T06:37:16;12.93;;;6.10;;
5722;SDS011;2886;49.722;8.612;2022-12-07T06:39:41;8.97;;;5.50;;
5722;SDS011;2886;49.722;8.612;2022-12-07T06:42:07;9.70;;;5.23;;
5722;SDS011;2886;49.722;8.612;2022-12-07T06:44:32;7.90;;;4.70;;
5722;SDS011;2886;49.722;8.612;2022-12-07T06:46:58;11.23;;;5.23;;
5722;SDS011;2886;49.722;8.612;2022-12-07T06:49:24;11.93;;;5.70;;
5722;SDS011;2886;49.722;8.612;2022-12-07T06:51:49;11.90;;;5.43;;
5722;SDS011;2886;49.722;8.612;2022-12-07T06:54:15;7.57;;;4.97;;
5722;SDS011;2886;49.722;8.612;2022-12-07T06:56:41;8.20;;;4.83;;
5722;SDS011;2886;49.722;8.612;2022-12-07T06:59:07;9.40;;;4.67;;
5722;SDS011;2886;49.722;8.612;2022-12-07T07:01:34;8.90;;;5.17;;
5722;SDS011;2886;49.722;8.612;2022-12-07T07:04:00;7.90;;;4.47;;
5722;SDS011;2886;49.722;8.612;2022-12-07T07:06:26;8.90;;;5.30;;
5722;SDS011;2886;49.722;8.612;2022-12-07T07:08:51;12.70;;;5.67;;
5722;SDS011;2886;49.722;8.612;2022-12-07T07:11:17;8.07;;;5.07;;
5722;SDS011;2886;49.722;8.612;2022-12-07T07:13:44;6.20;;;4.67;;
5722;SDS011;2886;49.722;8.612;2022-12-07T07:16:09;11.10;;;5.60;;
5722;SDS011;2886;49.722;8.612;2022-12-07T07:18:35;9.50;;;5.33;;
5722;SDS011;2886;49.722;8.612;2022-12-07T07:21:01;9.27;;;5.60;;
5722;SDS011;2886;49.722;8.612;2022-12-07T07:23:27;10.33;;;5.07;;
5722;SDS011;2886;49.722;8.612;2022-12-07T07:25:53;7.93;;;5.27;;
5722;SDS011;2886;49.722;8.612;2022-12-07T07:28:19;10.10;;;5.87;;
5722;SDS011;2886;49.722;8.612;2022-12-07T07:30:44;10.03;;;5.40;;
5722;SDS011;2886;49.722;8.612;2022-12-07T07:33:10;10.37;;;5.80;;
5722;SDS011;2886;49.722;8.612;2022-12-07T07:35:36;11.00;;;5.20;;
5722;SDS011;2886;49.722;8.612;2022-12-07T07:38:02;9.60;;;5.60;;
5722;SDS011;2886;49.722;8.612;2022-12-07T07:40:27;9.93;;;5.20;;
5722;SDS011;2886;49.722;8.612;2022-12-07T07:42:54;9.47;;;5.30;;
5722;SDS011;2886;49.722;8.612;2022-12-07T07:45:21;11.90;;;5.73;;
5722;SDS011;2886;49.722;8.612;2022-12-07T07:47:47;9.73;;;5.60;;
5722;SDS011;2886;49.722;8.612;2022-12-07T07:50:13;8.57;;;4.67;;
5722;SDS011;2886;49.722;8.612;2022-12-07T07:52:39;8.90;;;5.33;;
5722;SDS011;2886;49.722;8.612;2022-12-07T07:55:05;13.23;;;5.60;;
5722;SDS011;2886;49.722;8.612;2022-12-07T07:57:33;12.17;;;6.07;;
5722;SDS011;2886;49.722;8.612;2022-12-07T08:00:00;9.47;;;5.40;;
5722;SDS011;2886;49.722;8.612;2022-12-07T08:02:26;9.67;;;5.30;;
5722;SDS011;2886;49.722;8.612;2022-12-07T08:04:54;15.07;;;5.73;;
5722;SDS011;2886;49.722;8.612;2022-12-07T08:07:20;7.60;;;4.90;;
5722;SDS011;2886;49.722;8.612;2022-12-07T08:09:45;8.93;;;4.83;;
5722;SDS011;2886;49.722;8.612;2022-12-07T08:12:11;10.93;;;5.70;;
5722;SDS011;2886;49.722;8.612;2022-12-07T08:14:37;11.37;;;5.60;;
5722;SDS011;2886;49.722;8.612;2022-12-07T08:17:02;11.20;;;6.00;;
5722;SDS011;2886;49.722;8.612;2022-12-07T08:19:29;8.10;;;5.13;;
5722;SDS011;2886;49.722;8.612;2022-12-07T08:21:55;9.33;;;5.47;;
5722;SDS011;2886;49.722;8.612;2022-12-07T08:24:21;12.03;;;5.60;;
5722;SDS011;2886;49.722;8.612;2022-12-07T08:26:47;14.63;;;7.10;;
5722;SDS011;2886;49.722;8.612;2022-12-07T08:29:14;12.03;;;6.30;;
5722;SDS011;2886;49.722;8.612;2022-12-07T08:31:40;10.43;;;6.03;;
5722;SDS011;2886;49.722;8.612;2022-12-07T08:34:06;11.80;;;6.13;;
5722;SDS011;2886;49.722;8.612;2022-12-07T08:36:31;10.37;;;4.97;;
5722;SDS011;2886;49.722;8.612;2022-12-07T08:38:57;10.10;;;5.97;;
5722;SDS011;2886;49.722;8.612;2022-12-07T08:41:22;9.37;;;5.40;;
5722;SDS011;2886;49.722;8.612;2022-12-07T08:43:48;13.07;;;5.53;;
5722;SDS011;2886;49.722;8.612;2022-12-07T08:48:41;13.23;;;6.63;;
5722;SDS011;2886;49.722;8.612;2022-12-07T08:51:11;9.77;;;5.40;;
5722;SDS011;2886;49.722;8.612;2022-12-07T08:53:37;10.83;;;6.17;;
5722;SDS011;2886;49.722;8.612;2022-12-07T08:56:04;11.90;;;5.97;;
5722;SDS011;2886;49.722;8.612;2022-12-07T08:58:32;11.47;;;5.73;;
5722;SDS011;2886;49.722;8.612;2022-12-07T09:00:59;11.83;;;6.03;;
5722;SDS011;2886;49.722;8.612;2022-12-07T09:03:24;19.83;;;6.17;;
5722;SDS011;2886;49.722;8.612;2022-12-07T09:05:50;13.40;;;7.30;;
5722;SDS011;2886;49.722;8.612;2022-12-07T09:08:17;12.13;;;6.43;;
5722;SDS011;2886;49.722;8.612;2022-12-07T09:10:42;11.27;;;6.37;;
5722;SDS011;2886;49.722;8.612;2022-12-07T09:13:08;8.17;;;5.13;;
5722;SDS011;2886;49.722;8.612;2022-12-07T09:15:34;14.40;;;7.23;;
5722;SDS011;2886;49.722;8.612;2022-12-07T09:17:59;14.80;;;7.37;;
5722;SDS011;2886;49.722;8.612;2022-12-07T09:20:25;13.93;;;6.57;;
5722;SDS011;2886;49.722;8.612;2022-12-07T09:22:51;10.93;;;6.10;;
5722;SDS011;2886;49.722;8.612;2022-12-07T09:25:16;10.50;;;6.10;;
5722;SDS011;2886;49.722;8.612;2022-12-07T09:27:42;15.00;;;6.50;;
5722;SDS011;2886;49.722;8.612;2022-12-07T09:30:07;14.13;;;6.80;;
5722;SDS011;2886;49.722;8.612;2022-12-07T09:32:33;13.83;;;6.73;;
5722;SDS011;2886;49.722;8.612;2022-12-07T09:34:59;10.93;;;6.40;;
5722;SDS011;2886;49.722;8.612;2022-12-07T09:37:25;7.47;;;4.90;;
5722;SDS011;2886;49.722;8.612;2022-12-07T09:39:51;10.20;;;6.37;;
5722;SDS011;2886;49.722;8.612;2022-12-07T09:42:27;10.10;;;5.70;;
5722;SDS011;2886;49.722;8.612;2022-12-07T09:44:57;11.43;;;6.43;;
5722;SDS011;2886;49.722;8.612;2022-12-07T09:47:24;10.20;;;6.00;;
5722;SDS011;2886;49.722;8.612;2022-12-07T09:49:50;14.23;;;7.13;;
5722;SDS011;2886;49.722;8.612;2022-12-07T09:52:18;11.40;;;6.37;;
5722;SDS011;2886;49.722;8.612;2022-12-07T09:54:51;18.20;;;6.97;;
5722;SDS011;2886;49.722;8.612;2022-12-07T09:57:18;9.77;;;5.73;;
5722;SDS011;2886;49.722;8.612;2022-12-07T09:59:52;11.97;;;6.27;;
5722;SDS011;2886;49.722;8.612;2022-12-07T10:02:24;12.60;;;6.97;;
5722;SDS011;2886;49.722;8.612;2022-12-07T10:04:58;10.83;;;5.93;;
5722;SDS011;2886;49.722;8.612;2022-12-07T10:07:24;10.50;;;6.27;;
5722;SDS011;2886;49.722;8.612;2022-12-07T10:09:49;8.23;;;5.77;;
5722;SDS011;2886;49.722;8.612;2022-12-07T10:12:15;14.67;;;6.50;;
5722;SDS011;2886;49.722;8.612;2022-12-07T10:14:54;11.40;;;6.63;;
5722;SDS011;2886;49.722;8.612;2022-12-07T10:22:53;14.77;;;6.50;;
5722;SDS011;2886;49.722;8.612;2022-12-07T10:25:26;10.43;;;7.00;;
5722;SDS011;2886;49.722;8.612;2022-12-07T10:33:28;16.73;;;6.70;;
5722;SDS011;2886;49.722;8.612;2022-12-07T10:36:17;13.80;;;6.63;;
5722;SDS011;2886;49.722;8.612;2022-12-07T10:41:28;15.40;;;7.30;;
5722;SDS011;2886;49.722;8.612;2022-12-07T10:43:55;20.93;;;7.60;;
5722;SDS011;2886;49.722;8.612;2022-12-07T10:46:41;17.60;;;7.43;;
5722;SDS011;2886;49.722;8.612;2022-12-07T10:49:43;10.30;;;6.30;;
5722;SDS011;2886;49.722;8.612;2022-12-07T10:55:53;12.13;;;7.07;;
5722;SDS011;2886;49.722;8.612;2022-12-07T11:00:25;18.90;;;7.53;;
5722;SDS011;2886;49.722;8.612;2022-12-07T11:08:14;10.83;;;6.90;;
5722;SDS011;2886;49.722;8.612;2022-12-07T11:13:37;13.63;;;7.40;;
5722;SDS011;2886;49.722;8.612;2022-12-07T11:32:26;11.27;;;6.97;;
5722;SDS011;2886;49.722;8.612;2022-12-07T11:35:09;14.10;;;7.20;;
5722;SDS011;2886;49.722;8.612;2022-12-07T11:37:56;12.80;;;7.53;;
5722;SDS011;2886;49.722;8.612;2022-12-07T11:40:27;9.67;;;6.67;;
5722;SDS011;2886;49.722;8.612;2022-12-07T11:42:58;14.50;;;6.60;;
5722;SDS011;2886;49.722;8.612;2022-12-07T11:45:30;14.50;;;7.63;;
5722;SDS011;2886;49.722;8.612;2022-12-07T11:53:02;10.43;;;6.20;;
5722;SDS011;2886;49.722;8.612;2022-12-07T11:55:59;15.90;;;7.20;;
5722;SDS011;2886;49.722;8.612;2022-12-07T12:03:45;14.93;;;6.73;;
5722;SDS011;2886;49.722;8.612;2022-12-07T12:06:12;12.90;;;6.40;;
5722;SDS011;2886;49.722;8.612;2022-12-07T12:08:40;13.60;;;6.60;;
5722;SDS011;2886;49.722;8.612;2022-12-07T12:21:49;12.60;;;7.27;;
5722;SDS011;2886;49.722;8.612;2022-12-07T12:24:22;16.10;;;7.00;;
5722;SDS011;2886;49.722;8.612;2022-12-07T12:26:58;10.17;;;5.90;;
5722;SDS011;2886;49.722;8.612;2022-12-07T12:29:35;11.50;;;7.13;;
5722;SDS011;2886;49.722;8.612;2022-12-07T12:42:56;11.77;;;5.17;;
5722;SDS011;2886;49.722;8.612;2022-12-07T12:45:26;10.83;;;6.73;;
5722;SDS011;2886;49.722;8.612;2022-12-07T12:47:57;9.40;;;5.53;;
5722;SDS011;2886;49.722;8.612;2022-12-07T12:52:56;11.10;;;6.40;;
5722;SDS011;2886;49.722;8.612;2022-12-07T12:55:53;9.67;;;5.97;;
5722;SDS011;2886;49.722;8.612;2022-12-07T12:58:31;10.80;;;6.57;;
5722;SDS011;2886;49.722;8.612;2022-12-07T13:04:14;3.70;;;3.00;;
5722;SDS011;2886;49.722;8.612;2022-12-07T13:06:46;9.87;;;3.30;;
5722;SDS011;2886;49.722;8.612;2022-12-07T13:12:02;6.30;;;2.73;;
5722;SDS011;2886;49.722;8.612;2022-12-07T13:14:43;6.60;;;2.47;;
5722;SDS011;2886;49.722;8.612;2022-12-07T13:19:55;3.07;;;2.53;;
5722;SDS011;2886;49.722;8.612;2022-12-07T13:24:57;3.07;;;2.37;;
5722;SDS011;2886;49.722;8.612;2022-12-07T13:27:27;4.90;;;2.57;;
5722;SDS011;2886;49.722;8.612;2022-12-07T13:29:53;4.20;;;2.73;;
5722;SDS011;2886;49.722;8.612;2022-12-07T13:32:25;5.33;;;2.63;;
5722;SDS011;2886;49.722;8.612;2022-12-07T13:34:52;4.90;;;2.30;;
5722;SDS011;2886;49.722;8.612;2022-12-07T13:37:21;3.47;;;3.17;;
5722;SDS011;2886;49.722;8.612;2022-12-07T13:39:55;3.87;;;2.10;;
5722;SDS011;2886;49.722;8.612;2022-12-07T13:42:29;4.63;;;2.60;;
5722;SDS011;2886;49.722;8.612;2022-12-07T13:44:58;6.50;;;2.37;;
5722;SDS011;2886;49.722;8.612;2022-12-07T13:49:59;4.80;;;2.67;;
5722;SDS011;2886;49.722;8.612;2022-12-07T13:52:26;4.70;;;3.03;;
5722;SDS011;2886;49.722;8.612;2022-12-07T13:57:24;2.43;;;2.23;;
5722;SDS011;2886;49.722;8.612;2022-12-07T13:59:51;5.50;;;3.30;;
5722;SDS011;2886;49.722;8.612;2022-12-07T14:02:19;3.87;;;2.10;;
5722;SDS011;2886;49.722;8.612;2022-12-07T14:04:46;2.93;;;2.37;;
5722;SDS011;2886;49.722;8.612;2022-12-07T14:07:21;3.50;;;2.33;;
5722;SDS011;2886;49.722;8.612;2022-12-07T14:09:55;4.73;;;2.80;;
5722;SDS011;2886;49.722;8.612;2022-12-07T14:12:26;5.23;;;2.70;;
5722;SDS011;2886;49.722;8.612;2022-12-07T14:14:53;4.70;;;2.23;;
5722;SDS011;2886;49.722;8.612;2022-12-07T14:17:20;9.50;;;2.83;;
5722;SDS011;2886;49.722;8.612;2022-12-07T14:19:50;3.23;;;2.50;;
5722;SDS011;2886;49.722;8.612;2022-12-07T14:22:27;2.53;;;2.33;;
5722;SDS011;2886;49.722;8.612;2022-12-07T14:24:58;3.50;;;2.57;;
5722;SDS011;2886;49.722;8.612;2022-12-07T14:27:29;4.80;;;3.13;;
5722;SDS011;2886;49.722;8.612;2022-12-07T14:29:58;3.77;;;2.90;;
5722;SDS011;2886;49.722;8.612;2022-12-07T14:32:26;9.80;;;3.63;;
5722;SDS011;2886;49.722;8.612;2022-12-07T14:37:26;7.10;;;2.90;;
5722;SDS011;2886;49.722;8.612;2022-12-07T14:39:53;4.00;;;2.87;;
5722;SDS011;2886;49.722;8.612;2022-12-07T14:42:19;6.77;;;3.20;;
5722;SDS011;2886;49.722;8.612;2022-12-07T14:44:45;3.37;;;2.57;;
5722;SDS011;2886;49.722;8.612;2022-12-07T14:47:11;5.50;;;3.03;;
5722;SDS011;2886;49.722;8.612;2022-12-07T14:49:37;6.30;;;3.33;;
5722;SDS011;2886;49.722;8.612;2022-12-07T14:52:02;5.97;;;3.23;;
5722;SDS011;2886;49.722;8.612;2022-12-07T14:54:30;6.30;;;3.40;;
5722;SDS011;2886;49.722;8.612;2022-12-07T14:56:57;10.07;;;2.90;;
5722;SDS011;2886;49.722;8.612;2022-12-07T14:59:22;14.60;;;2.80;;
5722;SDS011;2886;49.722;8.612;2022-12-07T15:01:48;18.73;;;3.30;;
5722;SDS011;2886;49.722;8.612;2022-12-07T15:04:14;7.57;;;3.27;;
5722;SDS011;2886;49.722;8.612;2022-12-07T15:06:39;6.97;;;3.30;;
5722;SDS011;2886;49.722;8.612;2022-12-07T15:09:08;4.80;;;3.03;;
5722;SDS011;2886;49.722;8.612;2022-12-07T15:11:35;4.57;;;3.00;;
5722;SDS011;2886;49.722;8.612;2022-12-07T15:14:01;6.60;;;2.97;;
5722;SDS011;2886;49.722;8.612;2022-12-07T15:16:39;5.37;;;3.40;;
5722;SDS011;2886;49.722;8.612;2022-12-07T15:19:40;7.63;;;3.70;;
5722;SDS011;2886;49.722;8.612;2022-12-07T15:21:58;6.90;;;3.17;;
5722;SDS011;2886;49.722;8.612;2022-12-07T15:24:25;5.87;;;3.53;;
5722;SDS011;2886;49.722;8.612;2022-12-07T15:26:51;7.57;;;4.17;;
5722;SDS011;2886;49.722;8.612;2022-12-07T15:29:17;7.30;;;3.70;;
5722;SDS011;2886;49.722;8.612;2022-12-07T15:31:43;12.17;;;4.37;;
5722;SDS011;2886;49.722;8.612;2022-12-07T15:34:09;7.23;;;3.57;;
5722;SDS011;2886;49.722;8.612;2022-12-07T15:36:34;3.87;;;3.03;;
5722;SDS011;2886;49.722;8.612;2022-12-07T15:39:00;5.00;;;3.40;;
5722;SDS011;2886;49.722;8.612;2022-12-07T15:41:26;6.57;;;3.50;;
5722;SDS011;2886;49.722;8.612;2022-12-07T15:43:52;6.83;;;3.80;;
5722;SDS011;2886;49.722;8.612;2022-12-07T15:46:37;5.10;;;3.30;;
5722;SDS011;2886;49.722;8.612;2022-12-07T15:49:15;6.27;;;4.30;;
5722;SDS011;2886;49.722;8.612;2022-12-07T15:51:42;7.83;;;3.70;;
5722;SDS011;2886;49.722;8.612;2022-12-07T15:54:22;7.53;;;3.67;;
5722;SDS011;2886;49.722;8.612;2022-12-07T15:56:52;7.20;;;3.90;;
5722;SDS011;2886;49.722;8.612;2022-12-07T15:59:19;8.17;;;3.80;;
5722;SDS011;2886;49.722;8.612;2022-12-07T16:01:44;7.23;;;3.30;;
5722;SDS011;2886;49.722;8.612;2022-12-07T16:04:10;5.80;;;3.73;;
5722;SDS011;2886;49.722;8.612;2022-12-07T16:06:36;7.23;;;4.20;;
5722;SDS011;2886;49.722;8.612;2022-12-07T16:09:02;7.23;;;3.60;;
5722;SDS011;2886;49.722;8.612;2022-12-07T16:11:28;5.30;;;3.27;;
5722;SDS011;2886;49.722;8.612;2022-12-07T16:13:54;7.63;;;4.10;;
5722;SDS011;2886;49.722;8.612;2022-12-07T16:16:19;9.37;;;4.00;;
5722;SDS011;2886;49.722;8.612;2022-12-07T16:18:47;7.90;;;4.57;;
5722;SDS011;2886;49.722;8.612;2022-12-07T16:21:14;5.70;;;3.93;;
5722;SDS011;2886;49.722;8.612;2022-12-07T16:23:40;7.93;;;4.17;;
5722;SDS011;2886;49.722;8.612;2022-12-07T16:26:08;7.00;;;3.93;;
5722;SDS011;2886;49.722;8.612;2022-12-07T16:28:38;7.43;;;3.90;;
5722;SDS011;2886;49.722;8.612;2022-12-07T16:31:05;5.60;;;3.27;;
5722;SDS011;2886;49.722;8.612;2022-12-07T16:33:36;9.30;;;3.73;;
5722;SDS011;2886;49.722;8.612;2022-12-07T16:36:03;5.33;;;3.90;;
5722;SDS011;2886;49.722;8.612;2022-12-07T16:38:30;5.20;;;3.57;;
5722;SDS011;2886;49.722;8.612;2022-12-07T16:40:55;5.57;;;3.23;;
5722;SDS011;2886;49.722;8.612;2022-12-07T16:43:21;6.70;;;3.90;;
5722;SDS011;2886;49.722;8.612;2022-12-07T16:45:48;9.87;;;3.70;;
5722;SDS011;2886;49.722;8.612;2022-12-07T16:48:14;8.87;;;4.13;;
5722;SDS011;2886;49.722;8.612;2022-12-07T16:50:40;5.50;;;3.50;;
5722;SDS011;2886;49.722;8.612;2022-12-07T16:53:08;12.23;;;3.90;;
5722;SDS011;2886;49.722;8.612;2022-12-07T16:55:37;7.07;;;3.53;;
5722;SDS011;2886;49.722;8.612;2022-12-07T16:58:04;8.67;;;3.50;;
5722;SDS011;2886;49.722;8.612;2022-12-07T17:00:30;14.43;;;4.73;;
5722;SDS011;2886;49.722;8.612;2022-12-07T17:02:56;12.43;;;4.63;;
5722;SDS011;2886;49.722;8.612;2022-12-07T17:05:22;7.20;;;4.20;;
5722;SDS011;2886;49.722;8.612;2022-12-07T17:07:50;7.87;;;4.37;;
5722;SDS011;2886;49.722;8.612;2022-12-07T17:10:16;10.23;;;4.00;;
5722;SDS011;2886;49.722;8.612;2022-12-07T17:12:42;9.20;;;5.30;;
5722;SDS011;2886;49.722;8.612;2022-12-07T17:15:08;9.53;;;4.13;;
5722;SDS011;2886;49.722;8.612;2022-12-07T17:17:48;8.57;;;4.20;;
5722;SDS011;2886;49.722;8.612;2022-12-07T17:20:21;5.93;;;4.00;;
5722;SDS011;2886;49.722;8.612;2022-12-07T17:22:48;7.30;;;4.70;;
5722;SDS011;2886;49.722;8.612;2022-12-07T17:25:14;9.93;;;5.30;;
5722;SDS011;2886;49.722;8.612;2022-12-07T17:27:40;7.20;;;4.00;;
5722;SDS011;2886;49.722;8.612;2022-12-07T17:30:06;9.60;;;5.07;;
5722;SDS011;2886;49.722;8.612;2022-12-07T17:32:32;8.13;;;3.90;;